Share

Akhiok, AK

6:12 AM AKDT on April 24, 2014 (GMT -0800)
Kodiak (PADQ) Elev 112 ft | 57.75 °N, 152.49 °W | Change Station

Current weather conditions updated 19 minutes ago

Light Rain
Light Rain Mist
40 °F
Feels Like 33 °F
N
10
Wind Variable Wind from ENE
Sunrise 6:45 AM
Sunset 9:45 PM
Moon Waning Crescent

Today is forecast to be Cooler than yesterday. Showers.

Pressure 29.61 in
Visibility 5.0 miles
Clouds Scattered Clouds 900 ft
Mostly Cloudy 1700 ft
Overcast 2300 ft
Windchill 33 °F
Dew Point 38 °F
Humidity 93%
Rainfall 0.02 in
Snow Depth Not available.
UV 0 out of 16
Pollen Not available.
Air Quality Not available.
Flu Activity Sporadic
METAR PADQ 241353Z 06009KT 5SM -RA BR SCT009 BKN017 OVC023 04/03 A2961 RMK RAB15 SLP027 P0000 T00440033 VIA AUTODIAL

More Conditions Fewer Conditions

Pressure 29.61 in
Visibility 5.0 miles
Clouds Scattered Clouds 900 ft
Mostly Cloudy 1700 ft
Overcast 2300 ft
Windchill 33 °F
Dew Point 38 °F
Humidity 93%
Rainfall 0.02 in
Snow Depth Not available.
UV 0 out of 16
Pollen Not available.
Air Quality Not available.
Flu Activity Sporadic
METAR PADQ 241353Z 06009KT 5SM -RA BR SCT009 BKN017 OVC023 04/03 A2961 RMK RAB15 SLP027 P0000 T00440033 VIA AUTODIAL

More Conditions Fewer Conditions

10-Day Weather Forecast

Almanac

Astronomy

Apr. 24, 2014 Rise Set
Actual Time 6:45 AM AKDT 9:45 PM AKDT
Civil Twilight 6:01 AM AKDT 10:30 PM AKDT
Nautical Twilight 5:02 AM AKDT 11:29 PM AKDT
Astronomical Twilight 3:38 AM AKDT 12:56 AM AKDT
Moon 5:01 AM AKDT 4:20 PM AKDT
Length of Visible Light 16h 28m
Length of Day
15h 00m
Tomorrow will be 4m 36s longer.
Waning Crescent, 25% of the Moon is Illuminated
Today
Waning Crescent
Apr 29
New
May 6
First Quarter
May 14
Full
May 21
Last Quarter

Today's Extremes

State Highs State Lows

Community

  • Clouds mov'n in
    Clouds mov'n in
  • Stacked
    Stacked
  • clouds approaching Red Sox Nation
    clouds approaching Red Sox Nation
  • Balance
    Balance
  • Citysky
    Citysky

WunderPhotos

Upload Photos

1,704,619 photos uploaded!

Nearby

Snow Depth

Station Depth Elevation
Port Graham 2 in 300 ft
Nuka Glacier 27 in 1250 ft
Mcneil Canyon 3 in 1320 ft
MF Bradley River 17 in 2300 ft
Cooper Lake 18 in 1200 ft

Coastal Water Temperatures

Place Temperature
No Stations Reporting

Earthquake Activity

City Distance Mag. Time & Date
No recent earthquake activity has been reported nearby.
Minimum magnitude displayed is 2.5.

Nearby Weather Stations

There are no personal weather stations in this area.

What do you think?

We're not finished. Please let us know what you like, what you don't like, and what you are still missing.